Due to severe server failure at the provider, not all demo sites are operational. Will take some days to rebuilt everything.

Demonstration site - Click on the  for more information

This is an optional block. Switch it on/off in your settings-file: $SITE['bannerTop'] = false; or $SITE['bannerBottom'] = false;

You can display ads, any other important text or photo’s using text / html or PHP code.

You can place one or more at the top and or bottom and it can all be different for content / size .



Visit our other weather sites:

Template documentation
and downloads

And another site



Nearby METAR Reports

   
EBAW - Antwerp
Updated: 30-11-2020 13:50
Mist, Overcast  
Mist, Overcast  
   Wind: SW 14.8 km/h
Wind: SW 14.8 km/h
Temperature: 4°C
Wind Chill: 1°C
Dew Point: 2°C
Humidity: 87%
Barometer: 1023 hPa
Clouds: Overcast
Visibility: 3 km
Cloud details: Overcast 300 ft
EBAW 301250Z 22008KT 3000 BR OVC003 04/02 Q1023 NOSIG
EBLG - Liège
Updated: 30-11-2020 13:50
Mostly Cloudy  
Mostly Cloudy  
   Wind: South 20.4 km/h
Wind: South 20.4 km/h
Temperature: 2°C
Wind Chill: -3°C
Dew Point: 0°C
Humidity: 87%
Barometer: 1023 hPa
Clouds: Mostly Cloudy
Visibility: 8 km
Cloud details: Partly Cloudy 800 ft,
Mostly Cloudy 1300 ft
EBLG 301250Z 19011KT 8000 SCT008 BKN013 02/M00 Q1023 TEMPO BKN008
EBCV - Mons/Bergen
Updated: 30-11-2020 13:55
Overcast  
Overcast  
   Wind: SSW 22.2 km/h
Wind: SSW 22.2 km/h
Temperature: 2°C
Wind Chill: -3°C
Dew Point: 2°C
Humidity: 100%
Barometer: 1024 hPa
Clouds: Overcast
Cloud details: Overcast 300 ft
EBCV 301255Z AUTO 20012KT //// OVC003/// 02/02 Q1024 YLO
EHBK - Maastricht
Updated: 30-11-2020 13:55
Overcast  
Overcast  
   Wind: SW 22.2 km/h
Wind: SW 22.2 km/h
Temperature: 3°C
Wind Chill: -2°C
Dew Point: 0°C
Humidity: 81%
Barometer: 1023 hPa
Clouds: Overcast
Visibility: More than 10 km
Cloud details: Overcast 900 ft
EHBK 301255Z AUTO 22012KT 9999 OVC009 03/M00 Q1023 BECMG 7000
ELLX - Luxemburg
Updated: 30-11-2020 13:50
Partly Cloudy  
Partly Cloudy  
   Wind: SW 13 km/h
Wind: SW 13 km/h
Temperature: 2°C
Wind Chill: -2°C
Dew Point: -2°C
Humidity: 75%
Barometer: 1024 hPa
Clouds: Partly Cloudy
Visibility: 7 km
Cloud details: Partly Cloudy ft
ELLX 301250Z 23007KT 200V260 7000 NSC 02/M02 Q1024 NOSIG
EBOS - Oostende
Updated: 30-11-2020 13:50
Mist, Mostly Cloudy  
Mist, Mostly Cloudy  
   Wind: SSW 16.7 km/h
Wind: SSW 16.7 km/h
Temperature: 5°C
Wind Chill: 2°C
Dew Point: 4°C
Humidity: 93%
Barometer: 1023 hPa
Clouds: Mostly Cloudy
Visibility: 3 km
Cloud details: Mostly Cloudy 400 ft
EBOS 301250Z 21009KT 2500 BR BKN004 05/04 Q1023 TEMPO RADZ BKN005

Script developed by  Saratoga-weather.org Adapted for the template by  Weerstation Leuven

This is an optional block. Switch it on/off in your settings-file: $SITE['bannerTop'] = false; or $SITE['bannerBottom'] = false;

You can display ads, any other important text or photo’s using text / html or PHP code.

You can place one or more at the top and or bottom and it can all be different for content / size .